Time;durP1;ratioP1;P1;durP2;ratioP2;P2;SDS_P1;SDS_P2;PMS_P1;PMS_P2;Temp;Humidity;BMP_temperature;BMP_pressure;BME280_temperature;BME280_humidity;BME280_pressure;Samples;Min_cycle;Max_cycle;Signal;HPM_P1;HPM_P2
2023/05/04 00:03:17;;;;;;;22.80;16.20;;;;;;;2.08;68.54;100452.10;436478;1250;140528;-58
2023/05/04 00:13:23;;;;;;;27.40;16.80;;;;;;;1.97;68.94;100454.86;437063;1251;141296;-59
2023/05/04 00:23:29;;;;;;;28.00;16.60;;;;;;;1.88;69.48;100459.98;436209;1250;139202;-59
2023/05/04 00:33:34;;;;;;;22.10;14.80;;;;;;;1.78;69.87;100456.85;436251;1254;140532;-59
2023/05/04 00:43:40;;;;;;;20.20;15.50;;;;;;;1.67;70.23;100450.79;436544;1250;139868;-58
2023/05/04 00:53:47;;;;;;;27.40;16.20;;;;;;;1.56;70.47;100448.00;436359;1251;140385;-58
2023/05/04 01:03:55;;;;;;;28.10;16.60;;;;;;;1.42;70.72;100450.59;436886;1251;141029;-58
2023/05/04 01:14:02;;;;;;;21.30;15.40;;;;;;;1.34;71.38;100450.51;437123;1250;139285;-58
2023/05/04 01:24:06;;;;;;;;;;;;;;;1.24;71.56;100446.31;436401;1251;140014;-57
2023/05/04 01:34:13;;;;;;;23.10;14.80;;;;;;;1.11;72.08;100447.66;437931;1254;125448;-59
2023/05/04 01:44:19;;;;;;;25.20;16.10;;;;;;;1.03;72.27;100445.17;436901;1250;139437;-59
2023/05/04 01:54:25;;;;;;;23.40;17.30;;;;;;;0.93;72.39;100441.98;436877;1251;139782;-56
2023/05/04 02:04:30;;;;;;;24.20;17.60;;;;;;;0.84;72.72;100442.09;436676;1251;140518;-59
2023/05/04 02:14:36;;;;;;;25.60;17.00;;;;;;;0.76;72.96;100446.14;436823;1251;140630;-57
2023/05/04 02:24:43;;;;;;;23.20;15.70;;;;;;;0.68;73.29;100440.86;436829;1256;139547;-60
2023/05/04 02:34:49;;;;;;;25.60;16.20;;;;;;;0.60;73.38;100439.73;436420;1254;140635;-59
2023/05/04 02:44:55;;;;;;;25.50;15.50;;;;;;;0.50;73.63;100437.94;436405;1254;139356;-58
2023/05/04 02:55:02;;;;;;;24.50;14.60;;;;;;;0.43;73.61;100438.51;436454;1251;140946;-59
2023/05/04 03:05:09;;;;;;;20.80;14.50;;;;;;;0.38;73.93;100435.28;436715;1251;140662;-58
2023/05/04 03:15:15;;;;;;;26.30;16.10;;;;;;;0.37;74.22;100440.62;436427;1254;140202;-59
2023/05/04 03:25:21;;;;;;;22.20;15.90;;;;;;;0.47;74.41;100440.37;436194;1251;139827;-59
2023/05/04 03:35:27;;;;;;;27.10;15.70;;;;;;;0.64;74.33;100436.77;436406;1251;141067;-58
2023/05/04 03:45:33;;;;;;;25.00;15.70;;;;;;;0.89;74.05;100439.45;436169;1250;141065;-57
2023/05/04 03:55:39;;;;;;;62.00;23.30;;;;;;;1.22;73.99;100442.71;436275;1251;142379;-59
2023/05/04 04:05:44;;;;;;;29.10;18.70;;;;;;;1.60;74.07;100448.46;436338;1253;140650;-58
2023/05/04 04:15:50;;;;;;;38.90;23.90;;;;;;;2.11;74.14;100449.46;436276;1251;140374;-57
2023/05/04 04:25:56;;;;;;;36.00;20.60;;;;;;;2.90;74.10;100457.30;436783;1253;139458;-59
2023/05/04 04:36:02;;;;;;;32.40;22.60;;;;;;;3.87;73.02;100458.33;436254;1251;141281;-59
2023/05/04 04:46:08;;;;;;;37.20;24.70;;;;;;;4.50;72.36;100454.60;435798;1251;140939;-59
2023/05/04 04:56:17;;;;;;;34.30;23.20;;;;;;;5.17;71.88;100457.89;436027;1256;139894;-59
2023/05/04 05:06:23;;;;;;;33.30;24.10;;;;;;;10.24;70.90;100448.36;436088;1251;140740;-59
2023/05/04 05:16:28;;;;;;;21.40;18.50;;;;;;;21.44;57.06;100426.80;436428;1250;139461;-59
2023/05/04 05:26:34;;;;;;;28.70;21.20;;;;;;;27.93;44.41;100416.70;436379;1251;139570;-57
2023/05/04 05:36:40;;;;;;;19.60;17.20;;;;;;;33.27;35.65;100412.21;435547;1253;139365;-58
2023/05/04 05:46:44;;;;;;;;;;;;;;;36.23;29.61;100405.89;435714;1254;139482;-59
2023/05/04 05:56:49;;;;;;;;;;;;;;;39.31;25.49;100402.58;436232;1251;125942;-58
2023/05/04 06:06:54;;;;;;;11.20;7.70;;;;;;;42.31;22.02;100399.44;436926;1251;125281;-59
2023/05/04 06:17:00;;;;;;;7.90;3.20;;;;;;;44.31;19.13;100394.55;436668;1255;140257;-58
2023/05/04 06:27:06;;;;;;;2.10;1.70;;;;;;;45.40;16.79;100394.76;436550;1256;139446;-58
2023/05/04 06:37:12;;;;;;;1.70;1.30;;;;;;;46.72;15.09;100396.77;436749;1254;139055;-59
2023/05/04 06:47:20;;;;;;;4.70;2.00;;;;;;;47.98;13.75;100390.03;436412;1254;139941;-59
2023/05/04 06:57:26;;;;;;;2.50;1.60;;;;;;;48.83;12.85;100387.46;436483;1251;138885;-56
2023/05/04 07:07:32;;;;;;;1.90;1.80;;;;;;;49.52;11.67;100389.31;436553;1254;138642;-59
2023/05/04 07:17:38;;;;;;;2.50;2.30;;;;;;;47.62;11.27;100393.23;436346;1255;153918;-59
2023/05/04 07:27:44;;;;;;;2.90;2.70;;;;;;;48.76;10.75;100388.12;436481;1254;139297;-59
2023/05/04 07:37:50;;;;;;;2.30;2.10;;;;;;;47.74;10.76;100387.38;436683;1254;139012;-58
2023/05/04 07:47:56;;;;;;;3.20;2.40;;;;;;;48.31;10.41;100382.67;436375;1255;139185;-58
2023/05/04 07:58:02;;;;;;;2.70;2.00;;;;;;;46.26;10.42;100371.65;436429;1254;139144;-58
2023/05/04 08:08:09;;;;;;;1.30;1.20;;;;;;;47.03;10.34;100372.11;436678;1256;139717;-59
2023/05/04 08:18:15;;;;;;;5.30;1.50;;;;;;;42.75;10.39;100371.20;436778;1254;139035;-59
2023/05/04 08:28:21;;;;;;;5.20;1.20;;;;;;;33.37;12.71;100381.05;436480;1256;139298;-59
2023/05/04 08:38:27;;;;;;;4.10;1.10;;;;;;;27.39;14.99;100390.34;436821;1254;139626;-58
2023/05/04 08:48:34;;;;;;;3.10;1.30;;;;;;;25.39;17.02;100383.75;437062;1254;139493;-60
2023/05/04 08:58:48;;;;;;;4.60;1.60;;;;;;;23.27;17.92;100391.09;436787;1254;139699;-58
2023/05/04 09:08:53;;;;;;;1.40;1.10;;;;;;;20.92;19.44;100395.48;437110;1254;139591;-58
2023/05/04 09:18:59;;;;;;;2.80;1.50;;;;;;;19.62;20.75;100385.40;436674;1251;139500;-59
2023/05/04 09:29:13;;;;;;;1.90;1.40;;;;;;;19.72;21.25;100377.44;436736;1251;140943;-59
2023/05/04 09:39:19;;;;;;;1.40;1.30;;;;;;;19.28;21.80;100374.02;436526;1252;139524;-59
2023/05/04 09:49:35;;;;;;;3.10;1.40;;;;;;;18.78;22.64;100369.50;436299;1254;138703;-58
2023/05/04 09:59:42;;;;;;;1.30;0.90;;;;;;;18.58;22.84;100365.62;436479;1254;138555;-59
2023/05/04 10:09:48;;;;;;;1.60;1.50;;;;;;;18.40;23.22;100359.89;437064;1254;139324;-59
2023/05/04 10:20:11;;;;;;;4.70;1.90;;;;;;;18.04;23.73;100345.30;436996;1251;139225;-59
2023/05/04 10:30:19;;;;;;;3.10;1.40;;;;;;;17.80;24.01;100346.76;436426;1251;139746;-58
2023/05/04 10:40:36;;;;;;;3.30;1.90;;;;;;;17.29;24.31;100335.52;436622;1251;139799;-58
2023/05/04 10:50:46;;;;;;;2.30;1.50;;;;;;;16.59;25.15;100326.61;438525;1251;139773;-58
2023/05/04 11:00:52;;;;;;;4.10;1.60;;;;;;;16.62;25.67;100317.36;436894;1254;138932;-59
2023/05/04 11:11:06;;;;;;;3.10;1.60;;;;;;;16.60;25.80;100309.18;436307;1254;139268;-59
2023/05/04 11:21:12;;;;;;;2.80;1.60;;;;;;;16.75;25.97;100297.92;436655;1250;139233;-58
2023/05/04 11:31:19;;;;;;;3.10;2.10;;;;;;;16.76;26.41;100289.02;436545;1254;139630;-59
2023/05/04 11:41:28;;;;;;;1.40;1.30;;;;;;;16.53;26.31;100275.98;436592;1251;139639;-60
2023/05/04 11:51:34;;;;;;;1.80;1.70;;;;;;;16.39;26.60;100261.70;436240;1251;139234;-59
2023/05/04 12:01:40;;;;;;;3.40;1.40;;;;;;;16.17;26.74;100263.17;437691;1252;139558;-59
2023/05/04 12:11:55;;;;;;;3.50;1.70;;;;;;;16.14;26.78;100250.39;436339;1251;139104;-59
2023/05/04 12:22:03;;;;;;;3.80;1.90;;;;;;;16.06;27.09;100243.76;436704;1251;139292;-59
2023/05/04 12:32:09;;;;;;;4.40;2.20;;;;;;;16.04;27.29;100234.35;436816;1251;138599;-59
2023/05/04 12:42:15;;;;;;;1.60;1.50;;;;;;;15.89;27.22;100229.42;436401;1251;139210;-60
2023/05/04 12:52:21;;;;;;;6.10;2.50;;;;;;;15.91;27.32;100215.15;436236;1254;139898;-59
2023/05/04 13:02:27;;;;;;;1.90;1.60;;;;;;;16.03;27.36;100203.73;436408;1250;140531;-59
2023/05/04 13:12:32;;;;;;;2.00;1.80;;;;;;;15.96;27.75;100195.23;436418;1251;139330;-58
2023/05/04 13:22:38;;;;;;;2.80;2.40;;;;;;;16.03;27.77;100196.09;436321;1254;139187;-59
2023/05/04 13:32:44;;;;;;;2.80;1.50;;;;;;;15.96;27.59;100188.84;436620;1251;140556;-58
2023/05/04 13:42:50;;;;;;;1.90;1.70;;;;;;;15.99;27.65;100171.17;437137;1251;138588;-59
2023/05/04 13:52:56;;;;;;;2.10;1.50;;;;;;;16.06;27.97;100157.17;439488;1250;138788;-59
2023/05/04 14:03:02;;;;;;;2.60;1.10;;;;;;;16.16;28.66;100138.55;436118;1251;139487;-59
2023/05/04 14:13:08;;;;;;;2.20;1.70;;;;;;;16.19;28.30;100137.67;443280;1250;139675;-59
2023/05/04 14:23:14;;;;;;;2.40;1.50;;;;;;;16.15;28.31;100128.91;436367;1251;139984;-59
2023/05/04 14:33:20;;;;;;;2.20;2.00;;;;;;;16.28;28.47;100121.40;436155;1254;140299;-58
2023/05/04 14:43:26;;;;;;;2.20;2.00;;;;;;;16.26;28.69;100118.05;436574;1251;138471;-59
2023/05/04 14:53:34;;;;;;;3.50;1.60;;;;;;;16.25;28.83;100111.94;436807;1251;139201;-57
2023/05/04 15:03:42;;;;;;;3.00;2.10;;;;;;;16.28;28.72;100097.77;436900;1253;139493;-58
2023/05/04 15:13:48;;;;;;;2.00;1.70;;;;;;;16.23;28.90;100092.63;436216;1251;139724;-59
2023/05/04 15:23:53;;;;;;;2.50;2.20;;;;;;;16.16;29.02;100085.63;436480;1251;139663;-59
2023/05/04 15:34:00;;;;;;;2.50;1.90;;;;;;;16.20;29.27;100078.23;436341;1250;139211;-59
2023/05/04 15:44:06;;;;;;;5.20;2.10;;;;;;;15.98;29.63;100072.85;442189;1250;140226;-59
2023/05/04 15:54:12;;;;;;;5.40;1.40;;;;;;;15.66;29.96;100069.67;436359;1251;139071;-58
2023/05/04 16:04:18;;;;;;;2.10;1.70;;;;;;;15.56;30.38;100063.70;445017;1250;140070;-59
2023/05/04 16:14:24;;;;;;;1.70;1.60;;;;;;;15.80;30.44;100060.52;436995;1250;138909;-59
2023/05/04 16:24:30;;;;;;;4.10;1.60;;;;;;;16.04;30.59;100062.14;437219;1251;140013;-58
2023/05/04 16:34:36;;;;;;;3.90;1.60;;;;;;;16.01;30.38;100057.27;437173;1251;139765;-59
2023/05/04 16:44:42;;;;;;;2.80;1.40;;;;;;;15.77;30.56;100054.34;436569;1250;139252;-59
2023/05/04 16:54:47;;;;;;;4.30;1.30;;;;;;;15.56;30.57;100044.17;436750;1252;138665;-59
2023/05/04 17:04:54;;;;;;;2.30;2.00;;;;;;;15.27;30.80;100045.86;436725;1251;139594;-59
2023/05/04 17:14:59;;;;;;;3.20;1.70;;;;;;;15.09;31.14;100046.68;436682;1251;139720;-59
2023/05/04 17:25:06;;;;;;;2.30;1.70;;;;;;;14.92;31.38;100042.33;436462;1251;138514;-59
2023/05/04 17:35:12;;;;;;;2.30;1.70;;;;;;;14.74;31.69;100042.16;437141;1250;138699;-57
2023/05/04 17:45:29;;;;;;;4.70;2.10;;;;;;;14.48;32.04;100045.48;436690;1254;140482;-59
2023/05/04 17:55:35;;;;;;;3.60;2.40;;;;;;;14.21;32.32;100051.44;436899;1251;138735;-58
2023/05/04 18:05:41;;;;;;;3.90;1.90;;;;;;;13.95;33.17;100067.04;436931;1254;139377;-59
2023/05/04 18:15:47;;;;;;;3.10;2.40;;;;;;;13.69;33.53;100076.03;436426;1251;138722;-58
2023/05/04 18:25:53;;;;;;;5.50;2.90;;;;;;;13.47;33.88;100089.46;436518;1254;141599;-59
2023/05/04 18:35:59;;;;;;;5.70;2.70;;;;;;;13.27;34.35;100103.45;436440;1251;138999;-58
2023/05/04 18:46:08;;;;;;;6.30;2.60;;;;;;;13.04;34.82;100111.12;436025;1251;140274;-60
2023/05/04 18:56:14;;;;;;;3.10;2.40;;;;;;;12.91;35.30;100115.14;436493;1253;139443;-59
2023/05/04 19:06:20;;;;;;;5.60;3.00;;;;;;;12.83;35.81;100114.05;437919;1252;139685;-59
2023/05/04 19:16:26;;;;;;;7.40;2.70;;;;;;;12.73;36.33;100114.89;436412;1253;156000;-59
2023/05/04 19:26:32;;;;;;;5.30;3.00;;;;;;;12.66;36.58;100111.65;436685;1251;139215;-59
2023/05/04 19:36:38;;;;;;;6.70;4.40;;;;;;;12.56;36.74;100115.23;436823;1254;139748;-60
2023/05/04 19:46:46;;;;;;;4.60;3.60;;;;;;;12.42;36.96;100117.34;437451;1254;140295;-62
2023/05/04 19:56:51;;;;;;;5.70;3.40;;;;;;;12.30;36.95;100108.61;436938;1251;139521;-59
2023/05/04 20:06:57;;;;;;;7.40;3.00;;;;;;;12.19;37.08;100119.70;437412;1254;139178;-58
2023/05/04 20:17:03;;;;;;;6.70;3.90;;;;;;;12.10;37.41;100113.89;436999;1251;139545;-58
2023/05/04 20:27:09;;;;;;;7.80;3.70;;;;;;;12.04;37.56;100110.42;437467;1251;138632;-61
2023/05/04 20:37:15;;;;;;;4.70;3.40;;;;;;;11.92;37.68;100103.92;436934;1254;138819;-59
2023/05/04 20:47:21;;;;;;;6.90;4.50;;;;;;;11.81;37.84;100101.06;436776;1254;140153;-58
2023/05/04 20:57:27;;;;;;;14.70;8.40;;;;;;;11.70;38.04;100098.09;436583;1255;139590;-59
2023/05/04 21:07:33;;;;;;;8.60;4.80;;;;;;;11.61;38.40;100087.90;436499;1253;138786;-59
2023/05/04 21:17:38;;;;;;;5.80;3.40;;;;;;;11.53;38.60;100082.27;436489;1251;139040;-59
2023/05/04 21:27:44;;;;;;;3.70;3.10;;;;;;;11.49;38.55;100076.70;436326;1254;140005;-60
2023/05/04 21:37:50;;;;;;;6.50;3.10;;;;;;;11.44;38.53;100071.55;436552;1251;140201;-60
2023/05/04 21:47:56;;;;;;;6.10;3.90;;;;;;;11.42;38.56;100069.41;436437;1251;138528;-59
2023/05/04 21:58:01;;;;;;;6.70;4.10;;;;;;;11.31;38.83;100066.52;436400;1256;140052;-60
2023/05/04 22:08:07;;;;;;;7.00;4.20;;;;;;;11.19;39.17;100069.34;436436;1251;138742;-60
2023/05/04 22:18:13;;;;;;;11.40;4.80;;;;;;;11.00;39.41;100072.71;436082;1254;139312;-58
2023/05/04 22:28:19;;;;;;;8.50;4.70;;;;;;;10.83;39.82;100069.45;436316;1250;141374;-59
2023/05/04 22:38:25;;;;;;;5.20;4.10;;;;;;;10.64;40.08;100069.86;436523;1254;140500;-59
2023/05/04 22:48:31;;;;;;;4.90;3.10;;;;;;;10.48;40.22;100064.64;436337;1251;140316;-60
2023/05/04 22:58:37;;;;;;;10.50;4.10;;;;;;;10.28;41.21;100062.86;435905;1251;140544;-60
2023/05/04 23:08:44;;;;;;;4.30;3.30;;;;;;;10.18;41.45;100065.02;436310;1251;141018;-59
2023/05/04 23:18:49;;;;;;;8.60;4.70;;;;;;;9.98;42.77;100059.44;437004;1250;138862;-60
2023/05/04 23:28:55;;;;;;;6.00;4.10;;;;;;;9.79;43.08;100056.57;436648;1254;139396;-61
2023/05/04 23:39:01;;;;;;;9.30;4.90;;;;;;;9.66;43.56;100049.40;436323;1254;140362;-58
2023/05/04 23:49:07;;;;;;;6.20;4.20;;;;;;;9.53;43.91;100045.54;436815;1255;138517;-59
2023/05/04 23:59:12;;;;;;;7.70;5.00;;;;;;;9.42;44.21;100049.27;436231;1251;139872;-58
